Time;durP1;ratioP1;P1;durP2;ratioP2;P2;SDS_P1;SDS_P2;PMS_P1;PMS_P2;Temp;Humidity;BMP_temperature;BMP_pressure;BME280_temperature;BME280_humidity;BME280_pressure;Samples;Min_cycle;Max_cycle;Signal;HPM_P1;HPM_P2
2022/10/29 00:01:00;;;;;;;3.47;3.00;;;17.60;76.50;17.70;97252.00;;;;5027826;28;20283;-85
2022/10/29 00:03:27;;;;;;;4.20;3.03;;;17.50;77.10;17.70;97256.00;;;;5028081;28;20216;-86
2022/10/29 00:06:00;;;;;;;2.97;2.73;;;17.50;76.50;17.60;97259.00;;;;5020068;28;20312;-85
2022/10/29 00:08:31;;;;;;;2.97;2.77;;;17.50;77.30;17.60;97265.00;;;;5022743;28;20289;-86
2022/10/29 00:11:07;;;;;;;6.90;3.37;;;17.40;77.20;17.50;97258.00;;;;5026498;28;20605;-86
2022/10/29 00:13:35;;;;;;;4.43;2.60;;;17.40;76.50;17.50;97255.00;;;;5026674;28;20288;-85
2022/10/29 00:16:05;;;;;;;3.53;3.07;;;17.30;76.60;17.50;97253.00;;;;5024704;28;20213;-85
2022/10/29 00:18:32;;;;;;;2.90;2.67;;;17.30;76.60;17.40;97252.00;;;;5025074;28;20195;-83
2022/10/29 00:21:04;;;;;;;4.03;3.10;;;17.20;76.50;17.40;97252.00;;;;5027737;28;20209;-86
2022/10/29 00:23:33;;;;;;;3.97;3.40;;;17.20;77.40;17.30;97249.00;;;;5020845;28;20253;-85
2022/10/29 00:26:02;;;;;;;3.30;3.00;;;17.20;76.70;17.30;97253.00;;;;5024625;28;20206;-85
2022/10/29 00:28:29;;;;;;;3.40;3.00;;;17.10;76.60;17.30;97253.00;;;;5030841;28;20232;-85
2022/10/29 00:30:56;;;;;;;4.07;3.67;;;17.10;76.70;17.30;97244.00;;;;5025402;28;20240;-85
2022/10/29 00:33:23;;;;;;;3.57;3.27;;;17.10;76.80;17.30;97244.00;;;;5027372;28;20213;-85
2022/10/29 00:35:58;;;;;;;4.10;3.70;;;17.00;76.90;17.20;97248.00;;;;5024434;28;20297;-85
2022/10/29 00:38:26;;;;;;;4.60;3.77;;;17.00;77.00;17.20;97248.00;;;;5023617;28;20237;-85
2022/10/29 00:40:55;;;;;;;3.87;3.40;;;17.00;77.20;17.20;97247.00;;;;5025671;28;20288;-84
2022/10/29 00:43:25;;;;;;;4.70;3.83;;;17.00;77.40;17.20;97246.00;;;;5039821;28;20282;-85
2022/10/29 00:45:57;;;;;;;4.07;3.50;;;16.90;77.40;17.20;97247.00;;;;5030880;28;20197;-85
2022/10/29 00:48:28;;;;;;;3.90;3.60;;;16.90;77.50;17.20;97246.00;;;;5023989;28;20200;-85
2022/10/29 00:50:57;;;;;;;2.90;2.70;;;16.90;77.70;17.20;97248.00;;;;5024369;28;20304;-85
2022/10/29 00:53:30;;;;;;;3.50;3.20;;;16.90;77.80;17.20;97255.00;;;;5019993;28;20225;-85
2022/10/29 00:56:00;;;;;;;4.23;3.20;;;16.90;77.90;17.20;97258.00;;;;5025737;28;20193;-86
2022/10/29 00:58:29;;;;;;;3.40;3.10;;;16.90;78.00;17.20;97253.00;;;;5025669;28;20244;-85
2022/10/29 01:00:56;;;;;;;3.63;3.13;;;16.90;78.00;17.20;97261.00;;;;5029424;28;20238;-84
2022/10/29 01:03:23;;;;;;;3.33;3.03;;;16.90;78.00;17.20;97262.00;;;;5024618;28;20284;-85
2022/10/29 01:05:52;;;;;;;3.90;3.37;;;16.90;78.00;17.20;97262.00;;;;5024249;28;20210;-84
2022/10/29 01:08:19;;;;;;;4.17;3.17;;;16.90;77.90;17.20;97256.00;;;;5024626;28;20308;-86
2022/10/29 01:11:03;;;;;;;4.67;3.40;;;16.90;77.90;17.20;97248.00;;;;5024838;28;20233;-85
2022/10/29 01:13:59;;;;;;;3.97;3.60;;;16.90;77.70;17.10;97260.00;;;;5020149;28;20576;-86
2022/10/29 01:16:39;;;;;;;4.70;3.50;;;16.90;77.50;17.10;97260.00;;;;5019867;28;20703;-85
2022/10/29 01:19:19;;;;;;;3.73;3.43;;;16.90;77.40;17.10;97249.00;;;;5024268;28;20289;-85
2022/10/29 01:21:51;;;;;;;5.50;3.57;;;16.80;77.40;17.10;97254.00;;;;5019208;28;20205;-85
2022/10/29 01:24:56;;;;;;;4.13;3.70;;;16.80;77.50;17.00;97252.00;;;;5025419;28;20239;-85
2022/10/29 01:27:58;;;;;;;5.23;3.77;;;16.80;77.40;17.00;97263.00;;;;5024326;28;20208;-85
2022/10/29 01:30:54;;;;;;;3.43;3.13;;;16.80;77.50;17.00;97267.00;;;;5013628;28;20732;-85
2022/10/29 01:33:32;;;;;;;4.97;3.23;;;16.80;77.40;16.90;97257.00;;;;5021318;28;20289;-85
2022/10/29 01:36:14;;;;;;;4.17;3.70;;;16.70;77.40;16.90;97261.00;;;;5022858;28;20193;-84
2022/10/29 01:38:53;;;;;;;4.43;3.10;;;16.70;77.20;16.90;97257.00;;;;5033252;28;20202;-85
2022/10/29 01:41:32;;;;;;;3.70;3.40;;;16.70;77.20;16.80;97256.00;;;;5023055;28;20204;-85
2022/10/29 01:44:12;;;;;;;4.67;3.73;;;16.70;77.20;16.80;97254.00;;;;5023356;28;20295;-86
2022/10/29 01:46:48;;;;;;;3.57;3.20;;;16.60;77.30;16.80;97241.00;;;;5025846;28;20284;-85
2022/10/29 01:49:22;;;;;;;4.83;3.73;;;16.60;77.40;16.80;97240.00;;;;5019638;28;20203;-85
2022/10/29 01:51:52;;;;;;;3.77;3.47;;;16.60;77.60;16.80;97241.00;;;;5021883;28;20742;-85
2022/10/29 01:54:19;;;;;;;4.53;3.40;;;16.50;77.60;16.80;97238.00;;;;5025922;28;20236;-85
2022/10/29 01:56:55;;;;;;;3.80;3.03;;;16.50;77.60;16.70;97245.00;;;;5023421;28;20735;-84
2022/10/29 01:59:25;;;;;;;5.27;3.57;;;16.50;77.60;16.70;97249.00;;;;5025344;28;20658;-85
2022/10/29 02:02:08;;;;;;;3.97;3.57;;;16.50;77.60;16.70;97246.00;;;;5018387;28;20307;-85
2022/10/29 02:05:02;;;;;;;4.00;3.30;;;16.50;77.50;16.70;97239.00;;;;5023704;28;20608;-86
2022/10/29 02:07:44;;;;;;;3.60;3.00;;;16.50;77.30;16.60;97248.00;;;;5021690;28;20194;-86
2022/10/29 02:10:23;;;;;;;4.17;3.27;;;16.40;77.30;16.60;97244.00;;;;5021652;28;20288;-85
2022/10/29 02:12:54;;;;;;;3.77;3.47;;;16.40;77.40;16.60;97244.00;;;;5021062;28;20368;-84
2022/10/29 02:15:29;;;;;;;3.77;3.47;;;16.40;77.60;16.60;97252.00;;;;5023658;28;20232;-85
2022/10/29 02:18:02;;;;;;;5.43;3.40;;;16.40;77.50;16.60;97243.00;;;;5024850;28;20299;-85
2022/10/29 02:20:30;;;;;;;4.47;3.03;;;16.40;77.50;16.60;97230.00;;;;5017133;28;20224;-85
2022/10/29 02:22:57;;;;;;;4.43;3.30;;;16.30;77.40;16.50;97231.00;;;;5017619;28;20376;-85
2022/10/29 02:25:24;;;;;;;4.10;3.33;;;16.30;77.50;16.50;97239.00;;;;5017490;28;20222;-85
2022/10/29 02:27:52;;;;;;;4.40;2.83;;;16.30;77.40;16.50;97238.00;;;;5025465;28;20288;-85
2022/10/29 02:30:19;;;;;;;4.90;3.67;;;16.30;77.40;16.50;97239.00;;;;5021219;28;20289;-84
2022/10/29 02:32:46;;;;;;;4.70;3.63;;;16.20;77.40;16.40;97241.00;;;;5020865;28;20273;-85
2022/10/29 02:35:15;;;;;;;3.97;3.53;;;16.20;77.30;16.40;97233.00;;;;5024691;28;20225;-84
2022/10/29 02:37:42;;;;;;;3.47;3.17;;;16.20;77.30;16.40;97233.00;;;;5020974;28;20193;-85
2022/10/29 02:40:10;;;;;;;4.97;3.13;;;16.20;77.30;16.40;97220.00;;;;5021686;28;20232;-85
2022/10/29 02:42:38;;;;;;;3.30;3.00;;;16.20;77.30;16.40;97225.00;;;;5023983;28;20202;-85
2022/10/29 02:45:06;;;;;;;5.47;3.50;;;16.10;77.30;16.40;97239.00;;;;5023140;28;20305;-85
2022/10/29 02:47:33;;;;;;;5.93;3.33;;;16.10;77.30;16.30;97240.00;;;;5020900;28;20202;-85
2022/10/29 02:50:00;;;;;;;4.57;3.00;;;16.10;77.40;16.30;97238.00;;;;5021187;28;20288;-85
2022/10/29 02:52:28;;;;;;;4.10;3.70;;;16.10;77.40;16.30;97230.00;;;;5024977;28;20235;-85
2022/10/29 02:54:55;;;;;;;3.40;3.10;;;16.10;77.40;16.30;97221.00;;;;5020744;28;20301;-85
2022/10/29 02:57:22;;;;;;;3.90;3.50;;;16.10;78.30;16.20;97222.00;;;;5022116;28;20281;-85
2022/10/29 02:59:49;;;;;;;4.50;2.90;;;16.00;77.50;16.30;97225.00;;;;5023847;28;20297;-85
2022/10/29 03:02:16;;;;;;;5.07;3.23;;;16.00;77.50;16.20;97217.00;;;;5022287;28;20304;-85
2022/10/29 03:04:44;;;;;;;3.40;2.67;;;16.00;77.60;16.20;97212.00;;;;5022831;28;20225;-84
2022/10/29 03:07:11;;;;;;;5.17;2.83;;;16.00;77.80;16.20;97218.00;;;;5022563;28;20201;-85
2022/10/29 03:09:39;;;;;;;5.70;3.20;;;16.00;77.80;16.20;97204.00;;;;5022238;28;20234;-85
2022/10/29 03:12:07;;;;;;;3.63;2.93;;;16.00;77.70;16.20;97200.00;;;;5022365;28;20233;-84
2022/10/29 03:14:34;;;;;;;3.20;2.80;;;16.00;77.70;16.20;97217.00;;;;5020416;28;20229;-84
2022/10/29 03:17:01;;;;;;;3.47;3.03;;;16.00;77.80;16.20;97221.00;;;;5022484;28;20228;-85
2022/10/29 03:19:28;;;;;;;4.57;2.77;;;15.90;77.60;16.20;97221.00;;;;5022509;28;20209;-84
2022/10/29 03:21:55;;;;;;;4.47;3.10;;;15.90;77.60;16.20;97207.00;;;;5024478;28;20206;-85
2022/10/29 03:24:22;;;;;;;3.50;3.17;;;15.90;77.60;16.20;97212.00;;;;5024325;28;20604;-83
2022/10/29 03:26:51;;;;;;;4.20;3.27;;;16.00;77.70;16.10;97214.00;;;;5022270;28;20206;-85
2022/10/29 03:29:18;;;;;;;3.57;3.20;;;15.90;78.40;16.10;97220.00;;;;5021670;28;20678;-85
2022/10/29 03:31:45;;;;;;;3.13;2.80;;;15.90;77.60;16.10;97212.00;;;;5022518;28;20231;-85
2022/10/29 03:34:12;;;;;;;3.23;2.97;;;15.90;77.60;16.10;97212.00;;;;5021706;28;20308;-84
2022/10/29 03:36:39;;;;;;;3.70;2.63;;;15.90;77.60;16.10;97226.00;;;;5020060;28;20210;-84
2022/10/29 03:39:06;;;;;;;3.73;2.80;;;15.90;77.70;16.10;97227.00;;;;5022949;28;20626;-85
2022/10/29 03:41:33;;;;;;;5.33;3.33;;;15.90;77.90;16.10;97227.00;;;;5021581;28;20293;-85
2022/10/29 03:44:02;;;;;;;3.90;2.80;;;15.90;78.00;16.10;97226.00;;;;5020020;28;20304;-85
2022/10/29 03:46:29;;;;;;;3.77;2.80;;;15.80;77.90;16.10;97228.00;;;;5023434;28;20208;-85
2022/10/29 03:48:56;;;;;;;3.40;2.80;;;15.90;77.90;16.00;97233.00;;;;5025581;28;20325;-84
2022/10/29 03:51:23;;;;;;;4.87;2.90;;;15.80;77.90;16.00;97237.00;;;;5025686;28;20319;-85
2022/10/29 03:53:50;;;;;;;4.03;3.10;;;15.80;77.90;16.00;97224.00;;;;5020989;28;20226;-83
2022/10/29 03:56:18;;;;;;;3.33;2.90;;;15.80;77.90;16.00;97219.00;;;;5022662;28;20677;-84
2022/10/29 03:58:45;;;;;;;4.73;2.43;;;15.80;77.90;16.00;97213.00;;;;5020782;28;20233;-85
2022/10/29 04:01:13;;;;;;;6.83;3.27;;;15.80;78.10;16.00;97221.00;;;;5023214;28;20207;-83
2022/10/29 04:03:41;;;;;;;2.93;2.57;;;15.80;78.20;16.00;97215.00;;;;5020474;28;20221;-85
2022/10/29 04:06:13;;;;;;;3.07;2.77;;;15.80;78.20;16.00;97215.00;;;;5020994;28;20679;-85
2022/10/29 04:08:41;;;;;;;5.97;3.20;;;15.80;79.00;16.10;97216.00;;;;5016493;28;20225;-85
2022/10/29 04:11:11;;;;;;;3.07;2.67;;;15.80;78.30;16.10;97227.00;;;;5023674;28;20265;-84
2022/10/29 04:13:38;;;;;;;4.43;3.07;;;15.80;78.50;16.10;97228.00;;;;5020938;28;20232;-85
2022/10/29 04:16:06;;;;;;;2.67;2.47;;;15.80;78.50;16.10;97242.00;;;;5022807;28;20714;-84
2022/10/29 04:18:35;;;;;;;4.17;2.50;;;15.80;78.50;16.10;97244.00;;;;5020572;28;20672;-85
2022/10/29 04:21:02;;;;;;;4.13;2.30;;;15.80;79.30;16.10;97242.00;;;;5022635;28;20571;-84
2022/10/29 04:23:30;;;;;;;3.20;2.90;;;15.80;78.60;16.10;97242.00;;;;5020996;28;20619;-85
2022/10/29 04:25:58;;;;;;;2.87;2.53;;;15.90;78.80;16.10;97239.00;;;;5022186;28;20207;-85
2022/10/29 04:28:25;;;;;;;5.67;2.63;;;15.90;78.80;16.10;97229.00;;;;5020963;28;20208;-85
2022/10/29 04:30:53;;;;;;;3.23;2.57;;;15.90;78.80;16.10;97227.00;;;;5021623;28;20285;-85
2022/10/29 04:33:20;;;;;;;2.60;2.40;;;15.90;78.80;16.10;97227.00;;;;5021305;28;20288;-85
2022/10/29 04:35:54;;;;;;;3.43;2.47;;;15.90;78.80;16.10;97229.00;;;;5019277;28;20289;-84
2022/10/29 04:38:22;;;;;;;3.40;2.27;;;15.90;78.80;16.20;97223.00;;;;5016840;28;20222;-84
2022/10/29 04:40:49;;;;;;;2.60;2.40;;;15.90;78.80;16.20;97224.00;;;;5022271;28;20209;-85
2022/10/29 04:43:17;;;;;;;3.07;2.33;;;15.90;78.80;16.20;97222.00;;;;5021207;28;20202;-85
2022/10/29 04:45:44;;;;;;;2.93;2.40;;;15.90;78.80;16.20;97224.00;;;;5022974;28;20198;-85
2022/10/29 04:48:11;;;;;;;2.33;2.20;;;15.90;78.80;16.20;97233.00;;;;5021219;28;20276;-85
2022/10/29 04:50:38;;;;;;;2.97;2.33;;;15.90;78.90;16.20;97225.00;;;;5023452;28;20226;-85
2022/10/29 04:53:08;;;;;;;4.00;2.70;;;15.90;78.80;16.20;97215.00;;;;5026045;28;20694;-84
2022/10/29 04:55:38;;;;;;;2.60;2.27;;;15.90;78.80;16.20;97216.00;;;;5017852;28;20202;-85
2022/10/29 04:58:05;;;;;;;3.30;2.20;;;15.90;78.80;16.20;97210.00;;;;5026998;28;20194;-85
2022/10/29 05:00:33;;;;;;;2.93;2.30;;;16.00;78.80;16.20;97210.00;;;;5019727;28;20707;-85
2022/10/29 05:03:00;;;;;;;2.67;2.17;;;16.00;78.80;16.20;97202.00;;;;5027851;28;20744;-85
2022/10/29 05:05:27;;;;;;;5.17;2.80;;;16.00;78.80;16.20;97202.00;;;;5081063;22;20322;-80
2022/10/29 05:07:58;;;;;;;4.83;2.53;;;16.00;78.90;16.20;97211.00;;;;5077287;22;20336;-85
2022/10/29 05:10:30;;;;;;;2.70;2.30;;;16.00;79.00;16.30;97215.00;;;;5033583;28;20226;-85
2022/10/29 05:12:59;;;;;;;2.27;2.00;;;16.00;79.00;16.30;97206.00;;;;5033719;28;20248;-85
2022/10/29 05:16:10;;;;;;;3.30;2.23;;;16.00;79.10;16.30;97205.00;;;;5033913;28;20232;-85
2022/10/29 05:18:42;;;;;;;4.13;2.23;;;16.00;79.10;16.30;97207.00;;;;5033398;28;20212;-85
2022/10/29 05:21:12;;;;;;;2.37;2.17;;;16.00;79.00;16.30;97200.00;;;;5033883;28;20217;-85
2022/10/29 05:23:39;;;;;;;3.83;2.63;;;16.00;79.10;16.30;97214.00;;;;5033758;28;20249;-84
2022/10/29 05:26:11;;;;;;;3.27;2.37;;;16.00;79.10;16.30;97208.00;;;;5033842;28;20256;-84
2022/10/29 05:28:38;;;;;;;3.17;2.23;;;16.00;79.10;16.30;97209.00;;;;5033343;28;20178;-84
2022/10/29 05:31:07;;;;;;;3.87;2.47;;;16.10;79.20;16.30;97211.00;;;;5033235;28;20225;-84
2022/10/29 05:33:38;;;;;;;2.30;2.10;;;16.10;79.20;16.30;97213.00;;;;5033519;28;20252;-86
2022/10/29 05:36:06;;;;;;;2.70;2.50;;;16.10;79.30;16.40;97216.00;;;;5032934;28;20626;-86
2022/10/29 05:38:33;;;;;;;3.20;2.70;;;16.10;79.20;16.40;97216.00;;;;5033217;28;20221;-86
2022/10/29 05:41:00;;;;;;;2.40;2.20;;;16.10;79.20;16.40;97217.00;;;;5033370;28;20267;-87
2022/10/29 05:43:29;;;;;;;3.70;2.23;;;16.10;79.20;16.40;97222.00;;;;5032933;28;20264;-86
2022/10/29 05:45:56;;;;;;;2.83;2.43;;;16.10;79.10;16.40;97220.00;;;;5032732;28;20296;-86
2022/10/29 05:48:25;;;;;;;4.77;2.80;;;16.10;79.10;16.40;97221.00;;;;5035512;28;20283;-86
2022/10/29 05:51:05;;;;;;;2.30;2.13;;;16.10;79.10;16.40;97226.00;;;;5033895;28;20251;-86
2022/10/29 05:53:35;;;;;;;2.70;2.20;;;16.20;79.20;16.40;97224.00;;;;5034273;28;20259;-86
2022/10/29 05:56:02;;;;;;;3.00;2.63;;;16.20;79.20;16.40;97235.00;;;;5032490;28;20224;-86
2022/10/29 05:58:31;;;;;;;3.00;2.60;;;16.20;79.10;16.40;97231.00;;;;5033255;28;20651;-86
2022/10/29 06:00:58;;;;;;;2.17;1.97;;;16.20;79.20;16.40;97231.00;;;;5033169;28;20201;-87
2022/10/29 06:03:31;;;;;;;4.10;2.27;;;16.20;79.20;16.40;97233.00;;;;5033740;28;20221;-81
2022/10/29 06:06:01;;;;;;;2.80;2.23;;;16.20;79.20;16.50;97232.00;;;;5034409;28;20201;-81
2022/10/29 06:08:37;;;;;;;3.00;2.60;;;16.20;79.10;16.50;97222.00;;;;5034602;28;20217;-81
2022/10/29 06:11:13;;;;;;;3.27;2.50;;;16.20;79.10;16.60;97225.00;;;;5030669;28;20197;-82
2022/10/29 06:13:48;;;;;;;3.70;2.90;;;16.20;79.20;16.60;97222.00;;;;5033266;28;20232;-85
2022/10/29 06:16:18;;;;;;;2.70;2.40;;;16.20;79.30;16.60;97228.00;;;;5033850;28;20266;-83
2022/10/29 06:18:45;;;;;;;2.87;2.60;;;16.20;79.30;16.60;97236.00;;;;5033421;28;20292;-81
2022/10/29 06:21:12;;;;;;;3.17;2.77;;;16.20;79.40;16.70;97235.00;;;;5034004;28;20263;-81
2022/10/29 06:23:40;;;;;;;2.43;2.23;;;16.20;80.10;16.70;97228.00;;;;5033336;28;20225;-81
2022/10/29 06:26:07;;;;;;;2.73;2.53;;;16.30;79.50;16.70;97235.00;;;;5033354;28;20205;-83
2022/10/29 06:28:40;;;;;;;3.00;2.70;;;16.30;79.60;16.80;97242.00;;;;5033609;28;20208;-82
2022/10/29 06:31:14;;;;;;;3.37;2.50;;;16.30;79.70;16.80;97249.00;;;;5035890;28;20237;-81
2022/10/29 06:33:47;;;;;;;2.80;2.60;;;16.30;79.70;16.80;97255.00;;;;5034533;28;20271;-82
2022/10/29 06:36:23;;;;;;;5.67;2.33;;;16.40;79.80;16.80;97266.00;;;;5033299;28;20211;-82
2022/10/29 06:38:53;;;;;;;2.73;2.20;;;16.40;80.00;16.90;97264.00;;;;5030538;28;20276;-82
2022/10/29 06:41:27;;;;;;;2.67;2.47;;;16.40;80.00;16.90;97259.00;;;;5033604;28;20609;-82
2022/10/29 06:43:57;;;;;;;2.57;2.37;;;16.40;80.00;16.90;97261.00;;;;5033239;28;20677;-82
2022/10/29 06:46:29;;;;;;;2.50;2.30;;;16.40;80.00;17.00;97259.00;;;;5034141;28;20228;-83
2022/10/29 06:49:01;;;;;;;4.37;2.70;;;16.50;80.10;17.00;97255.00;;;;5034480;28;20205;-82
2022/10/29 06:51:31;;;;;;;2.63;2.30;;;16.50;80.10;17.00;97265.00;;;;5035711;28;20205;-80
2022/10/29 06:54:13;;;;;;;3.17;2.80;;;16.50;80.10;17.10;97248.00;;;;5034612;28;20228;-81
2022/10/29 06:56:41;;;;;;;2.80;2.57;;;16.60;80.20;17.10;97253.00;;;;5034278;28;20347;-81
2022/10/29 06:59:08;;;;;;;3.30;3.00;;;16.60;80.20;17.10;97262.00;;;;5033996;28;20566;-81
2022/10/29 07:01:40;;;;;;;3.47;2.73;;;16.60;80.30;17.20;97259.00;;;;5029362;28;20194;-81
2022/10/29 07:04:07;;;;;;;3.63;2.77;;;16.70;80.50;17.20;97262.00;;;;5033975;28;20226;-80
2022/10/29 07:06:42;;;;;;;2.73;2.53;;;16.70;80.50;17.30;97246.00;;;;5034611;28;20292;-80
2022/10/29 07:09:11;;;;;;;3.37;2.73;;;16.70;80.70;17.30;97262.00;;;;5032084;28;20208;-81
2022/10/29 07:11:41;;;;;;;4.30;2.93;;;16.80;80.70;17.30;97264.00;;;;5031098;28;20289;-81
2022/10/29 07:14:18;;;;;;;5.23;3.60;;;16.80;80.70;17.40;97260.00;;;;5034915;28;20237;-81
2022/10/29 07:16:50;;;;;;;4.80;4.40;;;16.90;80.80;17.50;97258.00;;;;5029794;28;20616;-81
2022/10/29 07:19:25;;;;;;;5.90;5.30;;;16.90;80.90;17.50;97262.00;;;;5033016;28;20688;-81
2022/10/29 07:22:00;;;;;;;5.23;4.73;;;17.00;81.10;17.60;97257.00;;;;5034527;28;20196;-81
2022/10/29 07:24:33;;;;;;;5.23;4.73;;;17.00;81.10;17.60;97254.00;;;;5033565;28;20609;-81
2022/10/29 07:27:06;;;;;;;5.73;5.03;;;17.10;81.30;17.70;97260.00;;;;5034237;28;20288;-80
2022/10/29 07:29:41;;;;;;;5.10;4.53;;;17.10;81.40;17.80;97259.00;;;;5034755;28;20204;-80
2022/10/29 07:32:12;;;;;;;4.90;4.40;;;17.20;81.70;17.80;97258.00;;;;5032160;28;20205;-81
2022/10/29 07:34:44;;;;;;;3.73;3.40;;;17.20;81.70;17.90;97261.00;;;;5034719;28;20634;-81
2022/10/29 07:37:18;;;;;;;4.30;3.90;;;17.30;81.70;18.00;97270.00;;;;5034628;28;20283;-81
2022/10/29 07:39:48;;;;;;;6.40;4.10;;;17.30;81.80;18.00;97273.00;;;;5027718;28;20234;-81
2022/10/29 07:42:20;;;;;;;3.73;3.30;;;17.40;81.90;18.10;97270.00;;;;5033991;28;20567;-81
2022/10/29 07:44:53;;;;;;;3.43;3.13;;;17.50;82.00;18.20;97281.00;;;;5032836;28;20225;-81
2022/10/29 07:47:31;;;;;;;3.87;3.10;;;17.60;82.20;18.30;97280.00;;;;5035009;28;20206;-81
2022/10/29 07:50:01;;;;;;;4.43;2.90;;;17.60;82.10;18.30;97286.00;;;;5036324;28;20590;-81
2022/10/29 07:52:32;;;;;;;3.93;3.60;;;17.70;82.10;18.40;97286.00;;;;5034929;28;20275;-81
2022/10/29 07:55:01;;;;;;;3.40;3.07;;;17.80;82.20;18.50;97276.00;;;;5036982;28;20204;-81
2022/10/29 07:57:49;;;;;;;6.67;3.13;;;17.80;82.00;18.50;97281.00;;;;5039581;28;20198;-81
2022/10/29 08:00:26;;;;;;;5.17;3.23;;;17.90;81.80;18.60;97280.00;;;;5037152;28;20193;-81
2022/10/29 08:03:00;;;;;;;5.17;3.20;;;18.00;81.70;18.70;97280.00;;;;5036466;28;20213;-81
2022/10/29 08:05:34;;;;;;;3.50;2.93;;;18.00;81.40;18.70;97272.00;;;;5036474;28;20693;-81
2022/10/29 08:08:04;;;;;;;3.97;3.40;;;18.10;81.20;18.80;97274.00;;;;5036805;28;20678;-81
2022/10/29 08:10:33;;;;;;;3.87;3.40;;;18.10;81.10;18.90;97270.00;;;;5036903;28;20205;-81
2022/10/29 08:13:06;;;;;;;4.70;3.23;;;18.20;81.20;18.90;97277.00;;;;5037137;28;20675;-81
2022/10/29 08:15:35;;;;;;;4.13;2.97;;;18.30;81.10;19.00;97283.00;;;;5037257;28;20205;-81
2022/10/29 08:18:11;;;;;;;4.70;3.00;;;18.30;81.00;19.00;97276.00;;;;5034440;28;20209;-82
2022/10/29 08:20:42;;;;;;;3.10;2.80;;;18.40;80.90;19.10;97281.00;;;;5033934;28;20224;-81
2022/10/29 08:23:15;;;;;;;2.63;2.43;;;18.50;80.80;19.20;97274.00;;;;5040681;28;20232;-82
2022/10/29 08:25:44;;;;;;;3.40;3.07;;;18.50;80.90;19.20;97267.00;;;;5039456;28;20217;-82
2022/10/29 08:28:15;;;;;;;3.00;2.60;;;18.60;80.90;19.30;97265.00;;;;5041081;28;20288;-81
2022/10/29 08:30:44;;;;;;;3.73;2.43;;;18.60;80.80;19.40;97259.00;;;;5040555;28;20205;-81
2022/10/29 08:33:30;;;;;;;2.70;2.33;;;18.70;80.70;19.40;97262.00;;;;5039913;28;20259;-81
2022/10/29 08:35:57;;;;;;;4.43;2.33;;;18.70;80.50;19.50;97260.00;;;;5038968;28;20236;-81
2022/10/29 08:38:30;;;;;;;2.30;2.10;;;18.80;80.40;19.50;97257.00;;;;5044498;28;20198;-81
2022/10/29 08:41:39;;;;;;;4.40;2.20;;;18.80;80.00;19.60;97264.00;;;;5040716;28;20232;-81
2022/10/29 08:44:49;;;;;;;2.37;2.00;;;18.90;79.90;19.70;97269.00;;;;5039568;28;20218;-81
2022/10/29 08:47:25;;;;;;;2.50;1.87;;;19.00;80.10;19.80;97272.00;;;;5034599;28;20209;-81
2022/10/29 08:50:06;;;;;;;2.90;2.00;;;19.10;80.20;19.80;97279.00;;;;5036620;28;20208;-81
2022/10/29 08:52:39;;;;;;;4.07;1.70;;;19.20;80.30;19.90;97283.00;;;;5040038;28;20260;-81
2022/10/29 08:55:22;;;;;;;2.63;1.83;;;19.20;80.00;19.90;97292.00;;;;5040366;28;20220;-81
2022/10/29 08:57:56;;;;;;;3.37;2.20;;;19.30;79.60;20.00;97286.00;;;;5040212;28;20579;-81
2022/10/29 09:00:35;;;;;;;2.30;2.10;;;19.30;79.10;20.00;97286.00;;;;5039168;28;20288;-81
2022/10/29 09:03:05;;;;;;;4.73;2.03;;;19.30;78.80;20.10;97286.00;;;;5041303;28;20223;-82
2022/10/29 09:06:00;;;;;;;5.63;2.20;;;19.40;78.90;20.10;97275.00;;;;5041824;28;20201;-81
2022/10/29 09:08:44;;;;;;;3.03;2.20;;;19.50;78.60;20.20;97279.00;;;;5041396;28;20217;-81
2022/10/29 09:11:38;;;;;;;3.03;2.10;;;19.50;78.40;20.20;97281.00;;;;5042192;28;20201;-82
2022/10/29 09:14:40;;;;;;;2.20;2.00;;;19.60;78.50;20.30;97280.00;;;;5035603;28;20248;-81
2022/10/29 09:17:28;;;;;;;3.50;2.30;;;19.60;78.60;20.40;97281.00;;;;5034106;28;20669;-81
2022/10/29 09:20:35;;;;;;;4.67;2.00;;;19.70;77.90;20.40;97277.00;;;;5033818;28;20696;-81
2022/10/29 09:23:28;;;;;;;3.37;1.57;;;19.80;77.10;20.40;97282.00;;;;5033842;28;20274;-81
2022/10/29 09:26:03;;;;;;;3.03;1.60;;;19.80;76.20;20.50;97276.00;;;;5035330;28;20198;-81
2022/10/29 09:28:49;;;;;;;5.30;2.27;;;19.80;75.80;20.50;97279.00;;;;5044096;28;20200;-81
2022/10/29 09:31:37;;;;;;;6.03;1.93;;;19.90;75.10;20.50;97286.00;;;;5032107;28;20611;-81
2022/10/29 09:34:12;;;;;;;6.83;2.07;;;19.90;75.50;20.60;97275.00;;;;5037102;28;20292;-81
2022/10/29 09:36:49;;;;;;;5.57;1.87;;;20.00;76.30;20.60;97276.00;;;;5041371;28;20667;-81
2022/10/29 09:39:29;;;;;;;2.33;1.73;;;20.00;76.60;20.70;97279.00;;;;5024012;28;20239;-80
2022/10/29 09:42:05;;;;;;;4.40;1.57;;;20.10;76.80;20.80;97275.00;;;;5039248;28;20204;-81
2022/10/29 09:44:47;;;;;;;2.63;1.47;;;20.20;77.30;20.90;97281.00;;;;5041660;28;20287;-81
2022/10/29 09:47:35;;;;;;;3.03;1.67;;;20.30;77.60;21.00;97283.00;;;;5043165;28;20681;-81
2022/10/29 09:50:16;;;;;;;3.13;2.00;;;20.40;77.90;21.20;97279.00;;;;5039514;28;20579;-80
2022/10/29 09:52:48;;;;;;;3.50;1.73;;;20.50;77.90;21.30;97288.00;;;;5038366;28;20232;-81
2022/10/29 09:55:28;;;;;;;3.33;2.20;;;20.60;78.20;21.40;97277.00;;;;5038444;28;20560;-80
2022/10/29 09:57:57;;;;;;;2.63;1.70;;;20.70;77.70;21.50;97276.00;;;;5042864;28;20205;-81
2022/10/29 10:00:31;;;;;;;7.47;2.63;;;20.90;77.70;21.60;97269.00;;;;5041964;28;20235;-81
2022/10/29 10:03:10;;;;;;;4.10;2.00;;;21.00;77.70;21.70;97269.00;;;;5034598;28;20646;-81
2022/10/29 10:06:02;;;;;;;2.10;1.90;;;21.10;77.60;21.80;97265.00;;;;5041058;28;20297;-81
2022/10/29 10:08:31;;;;;;;2.30;1.77;;;21.30;77.40;22.00;97261.00;;;;5039285;28;20238;-81
2022/10/29 10:11:04;;;;;;;4.20;2.23;;;21.40;77.70;22.10;97260.00;;;;5040958;28;20211;-80
2022/10/29 10:13:37;;;;;;;3.40;2.13;;;21.50;77.30;22.20;97261.00;;;;5039756;28;20229;-80
2022/10/29 10:16:09;;;;;;;3.10;2.40;;;21.60;77.50;22.40;97248.00;;;;5039617;28;20292;-80
2022/10/29 10:18:42;;;;;;;5.47;2.43;;;21.80;76.90;22.50;97256.00;;;;5040479;28;20682;-80
2022/10/29 10:21:12;;;;;;;3.50;2.10;;;21.90;76.60;22.70;97261.00;;;;5039438;28;20197;-80
2022/10/29 10:23:45;;;;;;;3.33;2.50;;;22.10;76.40;22.80;97252.00;;;;5039277;28;20229;-80
2022/10/29 10:26:41;;;;;;;4.30;2.00;;;22.20;76.00;23.00;97245.00;;;;5037687;28;20666;-81
2022/10/29 10:29:15;;;;;;;3.77;2.00;;;22.40;74.90;23.10;97248.00;;;;5035826;28;20292;-80
2022/10/29 10:31:47;;;;;;;5.00;2.20;;;22.50;74.60;23.10;97247.00;;;;5043925;28;20201;-81
2022/10/29 10:34:19;;;;;;;5.23;1.73;;;22.60;75.00;23.20;97247.00;;;;5045797;28;20930;-81
2022/10/29 10:36:52;;;;;;;3.43;2.10;;;22.60;74.70;23.30;97252.00;;;;5036799;28;20716;-81
2022/10/29 10:39:33;;;;;;;4.10;2.10;;;22.70;74.30;23.30;97252.00;;;;5038558;28;20196;-81
2022/10/29 10:42:15;;;;;;;2.10;1.90;;;22.80;73.70;23.40;97246.00;;;;5031516;28;21039;-81
2022/10/29 10:44:48;;;;;;;4.80;2.40;;;22.80;72.60;23.40;97240.00;;;;5035152;28;20685;-81
2022/10/29 10:47:21;;;;;;;6.73;2.67;;;22.90;72.60;23.40;97236.00;;;;5033398;28;20234;-81
2022/10/29 10:49:49;;;;;;;4.50;2.10;;;22.90;72.30;23.50;97231.00;;;;5033677;28;20248;-81
2022/10/29 10:52:21;;;;;;;3.00;2.10;;;22.90;72.90;23.50;97229.00;;;;5037805;28;20264;-81
2022/10/29 10:54:58;;;;;;;2.87;2.17;;;22.90;72.40;23.50;97229.00;;;;5044855;28;20256;-82
2022/10/29 10:57:32;;;;;;;2.73;1.90;;;22.90;72.50;23.50;97223.00;;;;5032675;28;20268;-81
2022/10/29 11:00:06;;;;;;;2.77;2.13;;;23.00;72.60;23.50;97223.00;;;;5037333;28;20224;-82
2022/10/29 11:02:49;;;;;;;2.57;1.90;;;23.00;72.30;23.50;97217.00;;;;5037396;28;20213;-82
2022/10/29 11:05:20;;;;;;;4.97;1.67;;;23.00;72.50;23.60;97223.00;;;;5030928;28;20291;-81
2022/10/29 11:07:57;;;;;;;6.30;1.93;;;23.00;72.40;23.60;97221.00;;;;5043813;22;20201;-88
2022/10/29 11:10:37;;;;;;;4.07;1.80;;;23.00;72.60;23.60;97218.00;;;;5042179;28;20671;-86
2022/10/29 11:13:12;;;;;;;3.83;1.60;;;23.00;72.40;23.60;97210.00;;;;5036916;28;20200;-87
2022/10/29 11:15:49;;;;;;;3.97;1.90;;;23.00;72.40;23.60;97212.00;;;;5041410;28;20252;-88
2022/10/29 11:18:23;;;;;;;3.33;1.60;;;23.00;72.10;23.60;97205.00;;;;5040969;28;20304;-86
2022/10/29 11:21:02;;;;;;;3.70;1.60;;;23.00;72.10;23.60;97197.00;;;;5040399;28;20201;-86